sensor_id;sensor_type;location;lat;lon;timestamp;temperature;humidity
837;DHT22;400;53.550;9.932;2023-04-01T00:00:36;12.50;99.90
837;DHT22;400;53.550;9.932;2023-04-01T00:03:03;12.50;99.90
837;DHT22;400;53.550;9.932;2023-04-01T00:05:31;12.50;99.90
837;DHT22;400;53.550;9.932;2023-04-01T00:07:58;12.50;99.90
837;DHT22;400;53.550;9.932;2023-04-01T00:10:26;12.50;99.90
837;DHT22;400;53.550;9.932;2023-04-01T00:12:53;12.50;99.90
837;DHT22;400;53.550;9.932;2023-04-01T00:15:20;12.50;99.90
837;DHT22;400;53.550;9.932;2023-04-01T00:17:47;12.50;99.90
837;DHT22;400;53.550;9.932;2023-04-01T00:20:14;12.50;99.90
837;DHT22;400;53.550;9.932;2023-04-01T00:22:42;12.40;99.90
837;DHT22;400;53.550;9.932;2023-04-01T00:25:09;12.30;99.90
837;DHT22;400;53.550;9.932;2023-04-01T00:27:36;12.30;99.90
837;DHT22;400;53.550;9.932;2023-04-01T00:30:04;12.40;99.90
837;DHT22;400;53.550;9.932;2023-04-01T00:32:32;12.30;99.90
837;DHT22;400;53.550;9.932;2023-04-01T00:34:59;12.30;99.90
837;DHT22;400;53.550;9.932;2023-04-01T00:37:26;12.30;99.90
837;DHT22;400;53.550;9.932;2023-04-01T00:39:55;12.30;99.90
837;DHT22;400;53.550;9.932;2023-04-01T00:42:22;12.40;99.90
837;DHT22;400;53.550;9.932;2023-04-01T00:44:51;12.40;99.90
837;DHT22;400;53.550;9.932;2023-04-01T00:47:18;12.30;99.90
837;DHT22;400;53.550;9.932;2023-04-01T00:49:48;12.30;99.90
837;DHT22;400;53.550;9.932;2023-04-01T00:52:18;12.40;99.90
837;DHT22;400;53.550;9.932;2023-04-01T00:54:47;12.40;99.90
837;DHT22;400;53.550;9.932;2023-04-01T00:57:21;12.40;99.90
837;DHT22;400;53.550;9.932;2023-04-01T00:59:52;12.40;99.90
837;DHT22;400;53.550;9.932;2023-04-01T01:02:21;12.20;99.90
837;DHT22;400;53.550;9.932;2023-04-01T01:04:48;12.30;99.90
837;DHT22;400;53.550;9.932;2023-04-01T01:07:20;12.30;99.90
837;DHT22;400;53.550;9.932;2023-04-01T01:09:57;12.30;99.90
837;DHT22;400;53.550;9.932;2023-04-01T01:12:31;12.30;99.90
837;DHT22;400;53.550;9.932;2023-04-01T01:15:06;12.30;99.90
837;DHT22;400;53.550;9.932;2023-04-01T01:17:43;12.30;99.90
837;DHT22;400;53.550;9.932;2023-04-01T01:20:40;12.30;99.90
837;DHT22;400;53.550;9.932;2023-04-01T01:23:46;12.30;99.90
837;DHT22;400;53.550;9.932;2023-04-01T01:29:34;12.30;99.90
837;DHT22;400;53.550;9.932;2023-04-01T01:32:12;12.30;99.90
837;DHT22;400;53.550;9.932;2023-04-01T01:34:48;12.30;99.90
837;DHT22;400;53.550;9.932;2023-04-01T01:37:23;12.30;99.90
837;DHT22;400;53.550;9.932;2023-04-01T01:39:54;12.30;99.90
837;DHT22;400;53.550;9.932;2023-04-01T01:42:24;12.40;99.90
837;DHT22;400;53.550;9.932;2023-04-01T01:44:54;12.30;99.90
837;DHT22;400;53.550;9.932;2023-04-01T01:47:22;12.30;99.90
837;DHT22;400;53.550;9.932;2023-04-01T01:49:51;12.40;99.90
837;DHT22;400;53.550;9.932;2023-04-01T01:52:20;12.30;99.90
837;DHT22;400;53.550;9.932;2023-04-01T01:54:52;12.30;99.90
837;DHT22;400;53.550;9.932;2023-04-01T01:57:22;12.30;99.90
837;DHT22;400;53.550;9.932;2023-04-01T01:59:51;12.30;99.90
837;DHT22;400;53.550;9.932;2023-04-01T02:02:20;12.30;99.90
837;DHT22;400;53.550;9.932;2023-04-01T02:04:49;12.40;99.90
837;DHT22;400;53.550;9.932;2023-04-01T02:07:22;12.30;99.90
837;DHT22;400;53.550;9.932;2023-04-01T02:09:50;12.40;99.90
837;DHT22;400;53.550;9.932;2023-04-01T02:12:19;12.30;99.90
837;DHT22;400;53.550;9.932;2023-04-01T02:14:51;12.30;99.90
837;DHT22;400;53.550;9.932;2023-04-01T02:17:21;12.30;99.90
837;DHT22;400;53.550;9.932;2023-04-01T02:19:54;12.30;99.90
837;DHT22;400;53.550;9.932;2023-04-01T02:22:25;12.20;99.90
837;DHT22;400;53.550;9.932;2023-04-01T02:24:58;12.30;99.90
837;DHT22;400;53.550;9.932;2023-04-01T02:27:25;12.30;99.90
837;DHT22;400;53.550;9.932;2023-04-01T02:29:52;12.30;99.90
837;DHT22;400;53.550;9.932;2023-04-01T02:32:20;12.30;99.90
837;DHT22;400;53.550;9.932;2023-04-01T02:34:48;12.30;99.90
837;DHT22;400;53.550;9.932;2023-04-01T02:37:15;12.30;99.90
837;DHT22;400;53.550;9.932;2023-04-01T02:39:43;12.30;99.90
837;DHT22;400;53.550;9.932;2023-04-01T02:42:10;12.30;99.90
837;DHT22;400;53.550;9.932;2023-04-01T02:44:37;12.30;99.90
837;DHT22;400;53.550;9.932;2023-04-01T02:47:04;12.20;99.90
837;DHT22;400;53.550;9.932;2023-04-01T02:49:31;12.30;99.90
837;DHT22;400;53.550;9.932;2023-04-01T02:51:57;12.30;99.90
837;DHT22;400;53.550;9.932;2023-04-01T02:54:24;12.20;99.90
837;DHT22;400;53.550;9.932;2023-04-01T02:56:53;12.20;99.90
837;DHT22;400;53.550;9.932;2023-04-01T02:59:20;12.20;99.90
837;DHT22;400;53.550;9.932;2023-04-01T03:01:46;12.30;99.90
837;DHT22;400;53.550;9.932;2023-04-01T03:04:13;12.20;99.90
837;DHT22;400;53.550;9.932;2023-04-01T03:06:40;12.20;99.90
837;DHT22;400;53.550;9.932;2023-04-01T03:09:07;12.20;99.90
837;DHT22;400;53.550;9.932;2023-04-01T03:11:34;12.30;99.90
837;DHT22;400;53.550;9.932;2023-04-01T03:14:02;12.30;99.90
837;DHT22;400;53.550;9.932;2023-04-01T03:16:29;12.20;99.90
837;DHT22;400;53.550;9.932;2023-04-01T03:18:56;12.20;99.90
837;DHT22;400;53.550;9.932;2023-04-01T03:21:25;12.20;99.90
837;DHT22;400;53.550;9.932;2023-04-01T03:23:52;12.20;99.90
837;DHT22;400;53.550;9.932;2023-04-01T03:26:19;12.20;99.90
837;DHT22;400;53.550;9.932;2023-04-01T03:28:47;12.20;99.90
837;DHT22;400;53.550;9.932;2023-04-01T03:31:15;12.20;99.90
837;DHT22;400;53.550;9.932;2023-04-01T03:33:42;12.20;99.90
837;DHT22;400;53.550;9.932;2023-04-01T03:36:09;12.20;99.90
837;DHT22;400;53.550;9.932;2023-04-01T03:38:38;12.10;99.90
837;DHT22;400;53.550;9.932;2023-04-01T03:41:06;12.10;99.90
837;DHT22;400;53.550;9.932;2023-04-01T03:43:33;12.10;99.90
837;DHT22;400;53.550;9.932;2023-04-01T03:46:00;12.10;99.90
837;DHT22;400;53.550;9.932;2023-04-01T03:48:28;12.10;99.90
837;DHT22;400;53.550;9.932;2023-04-01T03:50:54;12.20;99.90
837;DHT22;400;53.550;9.932;2023-04-01T03:53:22;12.10;99.90
837;DHT22;400;53.550;9.932;2023-04-01T03:55:49;12.10;99.90
837;DHT22;400;53.550;9.932;2023-04-01T03:58:16;12.10;99.90
837;DHT22;400;53.550;9.932;2023-04-01T04:00:43;12.10;99.90
837;DHT22;400;53.550;9.932;2023-04-01T04:03:10;12.10;99.90
837;DHT22;400;53.550;9.932;2023-04-01T04:05:46;12.10;99.90
837;DHT22;400;53.550;9.932;2023-04-01T04:08:13;12.10;99.90
837;DHT22;400;53.550;9.932;2023-04-01T04:10:40;12.10;99.90
837;DHT22;400;53.550;9.932;2023-04-01T04:13:08;12.10;99.90
837;DHT22;400;53.550;9.932;2023-04-01T04:15:35;12.10;99.90
837;DHT22;400;53.550;9.932;2023-04-01T04:18:02;12.10;99.90
837;DHT22;400;53.550;9.932;2023-04-01T04:20:29;12.20;99.90
837;DHT22;400;53.550;9.932;2023-04-01T04:22:57;12.20;99.90
837;DHT22;400;53.550;9.932;2023-04-01T04:25:24;12.20;99.90
837;DHT22;400;53.550;9.932;2023-04-01T04:27:51;12.20;99.90
837;DHT22;400;53.550;9.932;2023-04-01T04:30:18;12.10;99.90
837;DHT22;400;53.550;9.932;2023-04-01T04:32:44;12.20;99.90
837;DHT22;400;53.550;9.932;2023-04-01T04:35:11;12.10;99.90
837;DHT22;400;53.550;9.932;2023-04-01T04:37:38;12.20;99.90
837;DHT22;400;53.550;9.932;2023-04-01T04:40:08;12.20;99.90
837;DHT22;400;53.550;9.932;2023-04-01T04:42:34;12.20;99.90
837;DHT22;400;53.550;9.932;2023-04-01T04:45:01;12.20;99.90
837;DHT22;400;53.550;9.932;2023-04-01T04:47:28;12.20;99.90
837;DHT22;400;53.550;9.932;2023-04-01T04:49:56;12.20;99.90
837;DHT22;400;53.550;9.932;2023-04-01T04:52:23;12.20;99.90
837;DHT22;400;53.550;9.932;2023-04-01T04:54:52;12.20;99.90
837;DHT22;400;53.550;9.932;2023-04-01T04:57:24;12.20;99.90
837;DHT22;400;53.550;9.932;2023-04-01T04:59:55;12.20;99.90
837;DHT22;400;53.550;9.932;2023-04-01T05:02:24;12.10;99.90
837;DHT22;400;53.550;9.932;2023-04-01T05:04:51;12.20;99.90
837;DHT22;400;53.550;9.932;2023-04-01T05:07:17;12.10;99.90
837;DHT22;400;53.550;9.932;2023-04-01T05:09:46;12.10;99.90
837;DHT22;400;53.550;9.932;2023-04-01T05:12:13;12.10;99.90
837;DHT22;400;53.550;9.932;2023-04-01T05:14:41;12.10;99.90
837;DHT22;400;53.550;9.932;2023-04-01T05:17:09;12.10;99.90
837;DHT22;400;53.550;9.932;2023-04-01T05:19:36;12.10;99.90
837;DHT22;400;53.550;9.932;2023-04-01T05:22:03;12.10;99.90
837;DHT22;400;53.550;9.932;2023-04-01T05:24:30;12.20;99.90
837;DHT22;400;53.550;9.932;2023-04-01T05:26:57;12.10;99.90
837;DHT22;400;53.550;9.932;2023-04-01T05:29:24;12.10;99.90
837;DHT22;400;53.550;9.932;2023-04-01T05:31:53;12.00;99.90
837;DHT22;400;53.550;9.932;2023-04-01T05:34:21;12.10;99.90
837;DHT22;400;53.550;9.932;2023-04-01T05:36:49;12.00;99.90
837;DHT22;400;53.550;9.932;2023-04-01T05:39:15;12.00;99.90
837;DHT22;400;53.550;9.932;2023-04-01T05:41:42;12.00;99.90
837;DHT22;400;53.550;9.932;2023-04-01T05:44:11;12.00;99.90
837;DHT22;400;53.550;9.932;2023-04-01T05:46:38;11.90;99.90
837;DHT22;400;53.550;9.932;2023-04-01T05:49:06;11.80;99.90
837;DHT22;400;53.550;9.932;2023-04-01T05:51:33;11.40;99.90
837;DHT22;400;53.550;9.932;2023-04-01T05:54:00;11.10;99.90
837;DHT22;400;53.550;9.932;2023-04-01T05:56:27;11.00;99.90
837;DHT22;400;53.550;9.932;2023-04-01T05:58:54;10.90;99.90
837;DHT22;400;53.550;9.932;2023-04-01T06:01:21;10.70;99.90
837;DHT22;400;53.550;9.932;2023-04-01T06:03:48;10.70;99.90
837;DHT22;400;53.550;9.932;2023-04-01T06:06:23;10.60;99.90
837;DHT22;400;53.550;9.932;2023-04-01T06:08:51;10.50;99.90
837;DHT22;400;53.550;9.932;2023-04-01T06:11:24;10.50;99.90
837;DHT22;400;53.550;9.932;2023-04-01T06:14:16;10.50;99.90
837;DHT22;400;53.550;9.932;2023-04-01T06:16:58;10.40;99.90
837;DHT22;400;53.550;9.932;2023-04-01T06:19:36;10.30;99.90
837;DHT22;400;53.550;9.932;2023-04-01T06:22:22;10.20;99.90
837;DHT22;400;53.550;9.932;2023-04-01T06:27:51;10.10;99.90
837;DHT22;400;53.550;9.932;2023-04-01T06:30:34;10.10;99.90
837;DHT22;400;53.550;9.932;2023-04-01T06:33:20;10.00;99.90
837;DHT22;400;53.550;9.932;2023-04-01T06:36:07;10.00;99.90
837;DHT22;400;53.550;9.932;2023-04-01T06:38:51;10.00;99.90
837;DHT22;400;53.550;9.932;2023-04-01T06:41:32;9.90;99.90
837;DHT22;400;53.550;9.932;2023-04-01T06:44:09;9.90;99.90
837;DHT22;400;53.550;9.932;2023-04-01T06:46:44;10.00;99.90
837;DHT22;400;53.550;9.932;2023-04-01T06:49:25;9.90;99.90
837;DHT22;400;53.550;9.932;2023-04-01T06:51:59;9.70;99.90
837;DHT22;400;53.550;9.932;2023-04-01T06:54:33;9.70;99.90
837;DHT22;400;53.550;9.932;2023-04-01T06:57:05;9.70;99.90
837;DHT22;400;53.550;9.932;2023-04-01T06:59:39;9.70;99.90
837;DHT22;400;53.550;9.932;2023-04-01T07:02:19;9.60;99.90
837;DHT22;400;53.550;9.932;2023-04-01T07:04:50;9.50;99.90
837;DHT22;400;53.550;9.932;2023-04-01T07:07:27;9.60;99.90
837;DHT22;400;53.550;9.932;2023-04-01T07:09:59;9.60;99.90
837;DHT22;400;53.550;9.932;2023-04-01T07:12:33;9.60;99.90
837;DHT22;400;53.550;9.932;2023-04-01T07:15:09;9.60;99.90
837;DHT22;400;53.550;9.932;2023-04-01T07:17:41;9.60;99.90
837;DHT22;400;53.550;9.932;2023-04-01T07:20:16;9.60;99.90
837;DHT22;400;53.550;9.932;2023-04-01T07:22:48;9.70;99.90
837;DHT22;400;53.550;9.932;2023-04-01T07:25:20;9.50;99.90
837;DHT22;400;53.550;9.932;2023-04-01T07:27:48;9.50;99.90
837;DHT22;400;53.550;9.932;2023-04-01T07:30:17;9.40;99.90
837;DHT22;400;53.550;9.932;2023-04-01T07:32:47;9.40;99.90
837;DHT22;400;53.550;9.932;2023-04-01T07:35:22;9.20;99.90
837;DHT22;400;53.550;9.932;2023-04-01T07:38:01;9.20;99.90
837;DHT22;400;53.550;9.932;2023-04-01T07:40:42;9.10;99.90
837;DHT22;400;53.550;9.932;2023-04-01T07:43:35;9.10;99.90
837;DHT22;400;53.550;9.932;2023-04-01T07:46:13;9.10;99.90
837;DHT22;400;53.550;9.932;2023-04-01T07:48:47;9.10;99.90
837;DHT22;400;53.550;9.932;2023-04-01T07:51:21;9.10;99.90
837;DHT22;400;53.550;9.932;2023-04-01T07:54:00;9.10;99.90
837;DHT22;400;53.550;9.932;2023-04-01T07:56:38;9.10;99.90
837;DHT22;400;53.550;9.932;2023-04-01T07:59:17;8.90;99.90
837;DHT22;400;53.550;9.932;2023-04-01T08:01:54;8.90;99.90
837;DHT22;400;53.550;9.932;2023-04-01T08:04:32;8.90;99.90
837;DHT22;400;53.550;9.932;2023-04-01T08:07:08;8.90;99.90
837;DHT22;400;53.550;9.932;2023-04-01T08:09:43;9.00;99.90
837;DHT22;400;53.550;9.932;2023-04-01T08:12:33;9.10;99.90
837;DHT22;400;53.550;9.932;2023-04-01T08:15:17;9.10;99.90
837;DHT22;400;53.550;9.932;2023-04-01T08:17:58;9.10;99.90
837;DHT22;400;53.550;9.932;2023-04-01T08:20:34;9.10;99.90
837;DHT22;400;53.550;9.932;2023-04-01T08:23:11;9.10;99.90
837;DHT22;400;53.550;9.932;2023-04-01T08:25:42;9.00;99.90
837;DHT22;400;53.550;9.932;2023-04-01T08:28:17;8.90;99.90
837;DHT22;400;53.550;9.932;2023-04-01T08:30:49;9.00;99.90
837;DHT22;400;53.550;9.932;2023-04-01T08:33:21;8.90;99.90
837;DHT22;400;53.550;9.932;2023-04-01T08:35:54;8.90;99.90
837;DHT22;400;53.550;9.932;2023-04-01T08:38:28;8.80;99.90
837;DHT22;400;53.550;9.932;2023-04-01T08:41:19;8.80;99.90
837;DHT22;400;53.550;9.932;2023-04-01T08:44:11;8.80;99.90
837;DHT22;400;53.550;9.932;2023-04-01T08:47:06;8.90;99.90
837;DHT22;400;53.550;9.932;2023-04-01T08:50:01;8.80;99.90
837;DHT22;400;53.550;9.932;2023-04-01T08:52:35;8.70;99.90
837;DHT22;400;53.550;9.932;2023-04-01T08:55:27;8.80;99.90
837;DHT22;400;53.550;9.932;2023-04-01T08:58:13;8.90;99.90
837;DHT22;400;53.550;9.932;2023-04-01T09:00:50;8.90;99.90
837;DHT22;400;53.550;9.932;2023-04-01T09:03:36;8.90;99.90
837;DHT22;400;53.550;9.932;2023-04-01T09:06:29;8.90;99.90
837;DHT22;400;53.550;9.932;2023-04-01T09:09:41;9.00;99.90
837;DHT22;400;53.550;9.932;2023-04-01T09:15:44;8.90;99.90
837;DHT22;400;53.550;9.932;2023-04-01T09:18:53;8.90;99.90
837;DHT22;400;53.550;9.932;2023-04-01T09:21:41;9.10;99.90
837;DHT22;400;53.550;9.932;2023-04-01T09:27:28;9.00;99.90
837;DHT22;400;53.550;9.932;2023-04-01T09:30:20;9.00;99.90
837;DHT22;400;53.550;9.932;2023-04-01T09:33:05;9.10;99.90
837;DHT22;400;53.550;9.932;2023-04-01T09:35:46;9.10;99.90
837;DHT22;400;53.550;9.932;2023-04-01T09:38:30;9.10;99.90
837;DHT22;400;53.550;9.932;2023-04-01T09:41:07;9.30;99.90
837;DHT22;400;53.550;9.932;2023-04-01T09:44:03;9.10;99.90
837;DHT22;400;53.550;9.932;2023-04-01T09:46:55;9.10;99.90
837;DHT22;400;53.550;9.932;2023-04-01T09:49:51;9.00;99.90
837;DHT22;400;53.550;9.932;2023-04-01T09:52:31;9.10;99.90
837;DHT22;400;53.550;9.932;2023-04-01T09:55:17;9.30;99.90
837;DHT22;400;53.550;9.932;2023-04-01T10:10:36;8.90;99.90
837;DHT22;400;53.550;9.932;2023-04-01T10:13:36;8.90;99.90
837;DHT22;400;53.550;9.932;2023-04-01T10:16:34;9.00;99.90
837;DHT22;400;53.550;9.932;2023-04-01T10:19:44;9.00;99.90
837;DHT22;400;53.550;9.932;2023-04-01T10:22:30;9.00;99.90
837;DHT22;400;53.550;9.932;2023-04-01T10:35:05;9.20;99.90
837;DHT22;400;53.550;9.932;2023-04-01T10:38:14;9.30;99.90
837;DHT22;400;53.550;9.932;2023-04-01T10:41:28;9.30;99.90
837;DHT22;400;53.550;9.932;2023-04-01T10:44:52;9.20;99.90
837;DHT22;400;53.550;9.932;2023-04-01T10:47:45;9.30;99.90
837;DHT22;400;53.550;9.932;2023-04-01T10:50:31;9.20;99.90
837;DHT22;400;53.550;9.932;2023-04-01T10:56:43;9.10;99.90
837;DHT22;400;53.550;9.932;2023-04-01T11:06:00;9.20;99.90
837;DHT22;400;53.550;9.932;2023-04-01T11:09:15;9.30;99.90
837;DHT22;400;53.550;9.932;2023-04-01T11:25:09;9.00;99.90
837;DHT22;400;53.550;9.932;2023-04-01T11:28:05;9.10;99.90
837;DHT22;400;53.550;9.932;2023-04-01T11:30:49;9.00;99.90
837;DHT22;400;53.550;9.932;2023-04-01T11:33:25;9.00;99.90
837;DHT22;400;53.550;9.932;2023-04-01T11:36:02;9.00;99.90
837;DHT22;400;53.550;9.932;2023-04-01T11:41:33;9.00;99.90
837;DHT22;400;53.550;9.932;2023-04-01T11:44:17;9.00;99.90
837;DHT22;400;53.550;9.932;2023-04-01T11:47:03;9.00;99.90
837;DHT22;400;53.550;9.932;2023-04-01T11:49:49;9.10;99.90
837;DHT22;400;53.550;9.932;2023-04-01T11:52:34;9.00;99.90
837;DHT22;400;53.550;9.932;2023-04-01T11:55:19;9.00;99.90
837;DHT22;400;53.550;9.932;2023-04-01T11:58:26;8.90;99.90
837;DHT22;400;53.550;9.932;2023-04-01T12:01:20;9.00;99.90
837;DHT22;400;53.550;9.932;2023-04-01T12:04:26;9.00;99.90
837;DHT22;400;53.550;9.932;2023-04-01T12:07:10;8.80;99.90
837;DHT22;400;53.550;9.932;2023-04-01T12:09:52;8.70;99.90
837;DHT22;400;53.550;9.932;2023-04-01T12:12:35;8.70;99.90
837;DHT22;400;53.550;9.932;2023-04-01T12:15:17;8.70;99.90
837;DHT22;400;53.550;9.932;2023-04-01T12:17:50;8.70;99.90
837;DHT22;400;53.550;9.932;2023-04-01T12:20:43;8.60;99.90
837;DHT22;400;53.550;9.932;2023-04-01T12:23:34;8.60;99.90
837;DHT22;400;53.550;9.932;2023-04-01T12:26:23;8.50;99.90
837;DHT22;400;53.550;9.932;2023-04-01T12:29:13;8.50;99.90
837;DHT22;400;53.550;9.932;2023-04-01T12:35:21;8.40;99.90
837;DHT22;400;53.550;9.932;2023-04-01T12:38:08;8.40;99.90
837;DHT22;400;53.550;9.932;2023-04-01T12:41:03;8.50;99.90
837;DHT22;400;53.550;9.932;2023-04-01T12:44:02;8.50;99.90
837;DHT22;400;53.550;9.932;2023-04-01T12:46:49;8.50;99.90
837;DHT22;400;53.550;9.932;2023-04-01T12:49:35;8.40;99.90
837;DHT22;400;53.550;9.932;2023-04-01T12:52:16;8.40;99.90
837;DHT22;400;53.550;9.932;2023-04-01T12:55:18;8.50;99.90
837;DHT22;400;53.550;9.932;2023-04-01T13:01:15;8.50;99.90
837;DHT22;400;53.550;9.932;2023-04-01T13:06:55;8.60;99.90
837;DHT22;400;53.550;9.932;2023-04-01T13:09:36;8.60;99.90
837;DHT22;400;53.550;9.932;2023-04-01T13:12:21;8.40;99.90
837;DHT22;400;53.550;9.932;2023-04-01T13:15:12;8.50;99.90
837;DHT22;400;53.550;9.932;2023-04-01T13:17:48;8.40;99.90
837;DHT22;400;53.550;9.932;2023-04-01T13:20:23;8.50;99.90
837;DHT22;400;53.550;9.932;2023-04-01T13:23:02;8.40;99.90
837;DHT22;400;53.550;9.932;2023-04-01T13:25:38;8.30;99.90
837;DHT22;400;53.550;9.932;2023-04-01T13:28:14;8.30;99.90
837;DHT22;400;53.550;9.932;2023-04-01T13:30:52;8.30;99.90
837;DHT22;400;53.550;9.932;2023-04-01T13:33:31;8.20;99.90
837;DHT22;400;53.550;9.932;2023-04-01T13:36:16;8.20;99.90
837;DHT22;400;53.550;9.932;2023-04-01T13:39:06;8.20;99.90
837;DHT22;400;53.550;9.932;2023-04-01T13:41:50;8.30;99.90
837;DHT22;400;53.550;9.932;2023-04-01T13:44:32;8.40;99.90
837;DHT22;400;53.550;9.932;2023-04-01T13:47:16;8.40;99.90
837;DHT22;400;53.550;9.932;2023-04-01T13:50:16;8.10;99.90
837;DHT22;400;53.550;9.932;2023-04-01T13:53:10;8.10;99.90
837;DHT22;400;53.550;9.932;2023-04-01T13:55:50;8.10;99.90
837;DHT22;400;53.550;9.932;2023-04-01T13:58:33;8.00;99.90
837;DHT22;400;53.550;9.932;2023-04-01T14:01:13;8.10;99.90
837;DHT22;400;53.550;9.932;2023-04-01T14:07:18;8.10;99.90
837;DHT22;400;53.550;9.932;2023-04-01T14:10:02;8.10;99.90
837;DHT22;400;53.550;9.932;2023-04-01T14:12:38;8.10;99.90
837;DHT22;400;53.550;9.932;2023-04-01T14:18:30;8.10;99.90
837;DHT22;400;53.550;9.932;2023-04-01T14:21:11;8.10;99.90
837;DHT22;400;53.550;9.932;2023-04-01T14:27:17;8.00;99.90
837;DHT22;400;53.550;9.932;2023-04-01T14:30:15;8.00;99.90
837;DHT22;400;53.550;9.932;2023-04-01T14:32:51;8.00;99.90
837;DHT22;400;53.550;9.932;2023-04-01T14:35:34;8.10;99.90
837;DHT22;400;53.550;9.932;2023-04-01T14:38:26;8.10;99.90
837;DHT22;400;53.550;9.932;2023-04-01T14:41:15;8.10;99.90
837;DHT22;400;53.550;9.932;2023-04-01T14:44:04;8.10;99.90
837;DHT22;400;53.550;9.932;2023-04-01T14:46:56;8.10;99.90
837;DHT22;400;53.550;9.932;2023-04-01T14:49:34;8.20;99.90
837;DHT22;400;53.550;9.932;2023-04-01T14:52:13;8.10;99.90
837;DHT22;400;53.550;9.932;2023-04-01T14:54:45;7.90;99.90
837;DHT22;400;53.550;9.932;2023-04-01T14:57:15;7.90;99.90
837;DHT22;400;53.550;9.932;2023-04-01T14:59:48;7.90;99.90
837;DHT22;400;53.550;9.932;2023-04-01T15:02:41;7.90;99.90
837;DHT22;400;53.550;9.932;2023-04-01T15:05:19;7.90;99.90
837;DHT22;400;53.550;9.932;2023-04-01T15:08:22;7.90;99.90
837;DHT22;400;53.550;9.932;2023-04-01T15:11:19;7.90;99.90
837;DHT22;400;53.550;9.932;2023-04-01T15:14:08;7.80;99.90
837;DHT22;400;53.550;9.932;2023-04-01T15:16:51;7.70;99.90
837;DHT22;400;53.550;9.932;2023-04-01T15:19:39;7.80;99.90
837;DHT22;400;53.550;9.932;2023-04-01T15:22:37;7.80;99.90
837;DHT22;400;53.550;9.932;2023-04-01T15:25:23;7.80;99.90
837;DHT22;400;53.550;9.932;2023-04-01T15:27:57;7.80;99.90
837;DHT22;400;53.550;9.932;2023-04-01T15:30:38;7.90;99.90
837;DHT22;400;53.550;9.932;2023-04-01T15:33:28;7.90;99.90
837;DHT22;400;53.550;9.932;2023-04-01T15:39:12;7.60;99.90
837;DHT22;400;53.550;9.932;2023-04-01T15:42:04;7.70;99.90
837;DHT22;400;53.550;9.932;2023-04-01T15:44:48;7.70;99.90
837;DHT22;400;53.550;9.932;2023-04-01T15:47:45;7.70;99.90
837;DHT22;400;53.550;9.932;2023-04-01T15:50:34;7.80;99.90
837;DHT22;400;53.550;9.932;2023-04-01T15:53:29;7.80;99.90
837;DHT22;400;53.550;9.932;2023-04-01T15:56:10;7.70;99.90
837;DHT22;400;53.550;9.932;2023-04-01T15:58:50;7.70;99.90
837;DHT22;400;53.550;9.932;2023-04-01T16:01:28;7.70;99.90
837;DHT22;400;53.550;9.932;2023-04-01T16:04:15;7.50;99.90
837;DHT22;400;53.550;9.932;2023-04-01T16:06:55;7.60;99.90
837;DHT22;400;53.550;9.932;2023-04-01T16:09:43;7.40;99.90
837;DHT22;400;53.550;9.932;2023-04-01T16:12:35;7.40;99.90
837;DHT22;400;53.550;9.932;2023-04-01T16:15:16;7.30;99.90
837;DHT22;400;53.550;9.932;2023-04-01T16:18:10;7.40;99.90
837;DHT22;400;53.550;9.932;2023-04-01T16:20:50;7.30;99.90
837;DHT22;400;53.550;9.932;2023-04-01T16:23:22;7.30;99.90
837;DHT22;400;53.550;9.932;2023-04-01T16:25:55;7.20;99.90
837;DHT22;400;53.550;9.932;2023-04-01T16:28:30;7.30;99.90
837;DHT22;400;53.550;9.932;2023-04-01T16:31:06;7.30;99.90
837;DHT22;400;53.550;9.932;2023-04-01T16:33:44;7.10;99.90
837;DHT22;400;53.550;9.932;2023-04-01T16:36:22;7.10;99.90
837;DHT22;400;53.550;9.932;2023-04-01T16:39:06;7.10;99.90
837;DHT22;400;53.550;9.932;2023-04-01T16:41:57;7.20;99.90
837;DHT22;400;53.550;9.932;2023-04-01T16:44:47;7.20;99.90
837;DHT22;400;53.550;9.932;2023-04-01T16:47:29;7.00;99.90
837;DHT22;400;53.550;9.932;2023-04-01T16:50:06;6.90;99.90
837;DHT22;400;53.550;9.932;2023-04-01T16:53:08;6.90;99.90
837;DHT22;400;53.550;9.932;2023-04-01T16:55:46;7.00;99.90
837;DHT22;400;53.550;9.932;2023-04-01T16:58:23;7.00;99.90
837;DHT22;400;53.550;9.932;2023-04-01T17:01:05;7.00;99.90
837;DHT22;400;53.550;9.932;2023-04-01T17:03:39;7.00;99.90
837;DHT22;400;53.550;9.932;2023-04-01T17:06:28;6.90;99.90
837;DHT22;400;53.550;9.932;2023-04-01T17:09:10;6.90;99.90
837;DHT22;400;53.550;9.932;2023-04-01T17:11:45;6.90;99.90
837;DHT22;400;53.550;9.932;2023-04-01T17:14:20;6.80;99.90
837;DHT22;400;53.550;9.932;2023-04-01T17:17:00;6.80;99.90
837;DHT22;400;53.550;9.932;2023-04-01T17:20:03;6.80;99.90
837;DHT22;400;53.550;9.932;2023-04-01T17:22:37;6.70;99.90
837;DHT22;400;53.550;9.932;2023-04-01T17:25:19;6.60;99.90
837;DHT22;400;53.550;9.932;2023-04-01T17:28:23;6.60;99.90
837;DHT22;400;53.550;9.932;2023-04-01T17:31:00;6.50;99.90
837;DHT22;400;53.550;9.932;2023-04-01T17:33:42;6.60;99.90
837;DHT22;400;53.550;9.932;2023-04-01T17:36:23;6.60;99.90
837;DHT22;400;53.550;9.932;2023-04-01T17:39:19;6.60;99.90
837;DHT22;400;53.550;9.932;2023-04-01T17:41:54;6.60;99.90
837;DHT22;400;53.550;9.932;2023-04-01T17:44:33;6.50;99.90
837;DHT22;400;53.550;9.932;2023-04-01T17:47:19;6.50;99.90
837;DHT22;400;53.550;9.932;2023-04-01T17:52:47;6.50;99.90
837;DHT22;400;53.550;9.932;2023-04-01T17:58:30;6.50;99.90
837;DHT22;400;53.550;9.932;2023-04-01T18:01:11;6.60;99.90
837;DHT22;400;53.550;9.932;2023-04-01T18:07:22;6.50;99.90
837;DHT22;400;53.550;9.932;2023-04-01T18:10:07;6.50;99.90
837;DHT22;400;53.550;9.932;2023-04-01T18:12:51;6.50;99.90
837;DHT22;400;53.550;9.932;2023-04-01T18:15:26;6.60;99.90
837;DHT22;400;53.550;9.932;2023-04-01T18:18:10;6.60;99.90
837;DHT22;400;53.550;9.932;2023-04-01T18:20:47;6.40;99.90
837;DHT22;400;53.550;9.932;2023-04-01T18:23:28;6.40;99.90
837;DHT22;400;53.550;9.932;2023-04-01T18:26:04;6.40;99.90
837;DHT22;400;53.550;9.932;2023-04-01T18:28:36;6.40;99.90
837;DHT22;400;53.550;9.932;2023-04-01T18:31:15;6.40;99.90
837;DHT22;400;53.550;9.932;2023-04-01T18:34:02;6.30;99.90
837;DHT22;400;53.550;9.932;2023-04-01T18:36:39;6.20;99.90
837;DHT22;400;53.550;9.932;2023-04-01T18:39:16;6.20;99.90
837;DHT22;400;53.550;9.932;2023-04-01T18:41:53;6.20;99.90
837;DHT22;400;53.550;9.932;2023-04-01T18:44:41;6.10;99.90
837;DHT22;400;53.550;9.932;2023-04-01T18:47:25;6.20;99.90
837;DHT22;400;53.550;9.932;2023-04-01T18:50:01;6.30;99.90
837;DHT22;400;53.550;9.932;2023-04-01T18:52:34;6.30;99.90
837;DHT22;400;53.550;9.932;2023-04-01T18:55:36;6.20;99.90
837;DHT22;400;53.550;9.932;2023-04-01T18:58:18;6.10;99.90
837;DHT22;400;53.550;9.932;2023-04-01T19:00:52;6.10;99.90
837;DHT22;400;53.550;9.932;2023-04-01T19:03:24;6.10;99.90
837;DHT22;400;53.550;9.932;2023-04-01T19:05:56;6.00;99.90
837;DHT22;400;53.550;9.932;2023-04-01T19:08:31;6.00;99.90
837;DHT22;400;53.550;9.932;2023-04-01T19:11:11;6.00;99.90
837;DHT22;400;53.550;9.932;2023-04-01T19:13:51;5.90;99.90
837;DHT22;400;53.550;9.932;2023-04-01T19:16:33;5.90;99.90
837;DHT22;400;53.550;9.932;2023-04-01T19:19:29;6.00;99.90
837;DHT22;400;53.550;9.932;2023-04-01T19:22:21;6.00;99.90
837;DHT22;400;53.550;9.932;2023-04-01T19:25:09;6.00;99.90
837;DHT22;400;53.550;9.932;2023-04-01T19:27:49;6.10;99.90
837;DHT22;400;53.550;9.932;2023-04-01T19:30:27;6.10;99.90